createdAt,value
2019-04-04T00:01:36.639Z,2.57
2019-04-04T00:04:05.492Z,2.40
2019-04-04T00:06:34.415Z,2.57
2019-04-04T00:09:04.843Z,2.30
2019-04-04T00:11:35.069Z,2.73
2019-04-04T00:14:04.536Z,3.07
2019-04-04T00:16:33.423Z,2.70
2019-04-04T00:19:02.312Z,2.70
2019-04-04T00:21:32.047Z,3.43
2019-04-04T00:24:02.064Z,2.90
2019-04-04T00:26:30.916Z,3.07
2019-04-04T00:29:01.340Z,2.90
2019-04-04T00:31:30.504Z,2.47
2019-04-04T00:33:59.371Z,2.43
2019-04-04T00:36:28.399Z,2.00
2019-04-04T00:38:57.262Z,2.20
2019-04-04T00:41:26.144Z,2.00
2019-04-04T00:43:55.064Z,2.40
2019-04-04T00:46:23.928Z,2.10
2019-04-04T00:48:52.542Z,2.57
2019-04-04T00:51:21.217Z,2.77
2019-04-04T00:53:49.877Z,2.70
2019-04-04T00:56:18.811Z,2.47
2019-04-04T00:58:47.633Z,2.10
2019-04-04T01:01:16.740Z,2.53
2019-04-04T01:03:45.311Z,2.83
2019-04-04T01:06:13.987Z,2.73
2019-04-04T01:08:42.551Z,2.60
2019-04-04T01:11:11.207Z,2.80
2019-04-04T01:13:39.864Z,3.37
2019-04-04T01:16:08.511Z,3.17
2019-04-04T01:18:37.580Z,3.00
2019-04-04T01:21:06.389Z,2.20
2019-04-04T01:23:35.026Z,2.30
2019-04-04T01:26:04.117Z,3.53
2019-04-04T01:28:32.807Z,2.83
2019-04-04T01:31:01.445Z,1.90
2019-04-04T01:33:30.087Z,2.17
2019-04-04T01:35:58.748Z,1.70
2019-04-04T01:38:29.094Z,2.43
2019-04-04T01:40:57.734Z,1.87
2019-04-04T01:43:26.406Z,2.10
2019-04-04T01:45:55.037Z,2.63
2019-04-04T01:48:23.712Z,2.27
2019-04-04T01:50:53.781Z,2.20
2019-04-04T01:53:22.880Z,2.70
2019-04-04T01:55:51.520Z,2.90
2019-04-04T01:58:20.194Z,2.67
2019-04-04T02:00:48.895Z,2.53
2019-04-04T02:03:17.542Z,3.43
2019-04-04T02:05:46.211Z,3.17
2019-04-04T02:08:14.845Z,2.50
2019-04-04T02:10:43.477Z,3.07
2019-04-04T02:13:12.138Z,3.03
2019-04-04T02:15:40.837Z,2.40
2019-04-04T02:18:09.479Z,2.33
2019-04-04T02:20:38.307Z,2.40
2019-04-04T02:23:07.015Z,2.00
2019-04-04T02:25:35.648Z,2.33
2019-04-04T02:28:04.315Z,2.60
2019-04-04T02:30:33.018Z,2.23
2019-04-04T02:33:01.646Z,2.47
2019-04-04T02:35:30.311Z,2.80
2019-04-04T02:37:58.933Z,2.17
2019-04-04T02:40:27.572Z,2.13
2019-04-04T02:42:56.374Z,2.03
2019-04-04T02:45:25.025Z,2.20
2019-04-04T02:47:53.631Z,2.23
2019-04-04T02:50:22.317Z,1.90
2019-04-04T02:52:50.938Z,2.50
2019-04-04T02:55:19.552Z,2.60
2019-04-04T02:57:48.220Z,2.57
2019-04-04T03:00:17.314Z,2.43
2019-04-04T03:02:45.942Z,2.70
2019-04-04T03:05:18.843Z,2.60
2019-04-04T03:07:44.989Z,2.97
2019-04-04T03:10:16.549Z,2.63
2019-04-04T03:12:44.004Z,2.70
2019-04-04T03:15:12.633Z,3.20
2019-04-04T03:17:41.283Z,3.03
2019-04-04T03:20:09.916Z,2.37
2019-04-04T03:22:38.526Z,2.73
2019-04-04T03:25:07.350Z,2.63
2019-04-04T03:27:35.997Z,2.63
2019-04-04T03:30:13.195Z,2.20
2019-04-04T03:32:37.354Z,3.27
2019-04-04T03:35:07.258Z,2.50
2019-04-04T03:37:40.569Z,2.07
2019-04-04T03:40:07.509Z,3.60
2019-04-04T03:42:36.183Z,2.90
2019-04-04T03:45:06.080Z,3.10
2019-04-04T03:47:34.693Z,2.40
2019-04-04T03:50:03.533Z,3.43
2019-04-04T03:52:32.093Z,2.60
2019-04-04T03:55:00.722Z,2.57
2019-04-04T03:57:29.399Z,2.60
2019-04-04T03:59:57.952Z,2.90
2019-04-04T04:02:26.580Z,3.70
2019-04-04T04:05:00.472Z,2.60
2019-04-04T04:07:25.701Z,2.90
2019-04-04T04:09:59.286Z,3.20
2019-04-04T04:12:24.691Z,3.27
2019-04-04T04:14:54.950Z,2.67
2019-04-04T04:17:23.863Z,3.23
2019-04-04T04:19:52.531Z,3.10
2019-04-04T04:22:21.224Z,3.63
2019-04-04T04:24:49.841Z,2.80
2019-04-04T04:27:18.594Z,2.63
2019-04-04T04:29:47.215Z,2.80
2019-04-04T04:32:15.833Z,3.83
2019-04-04T04:34:44.488Z,3.70
2019-04-04T04:37:13.035Z,3.40
2019-04-04T04:39:41.659Z,3.17
2019-04-04T04:42:10.463Z,3.77
2019-04-04T04:44:39.170Z,3.50
2019-04-04T04:47:07.785Z,3.20
2019-04-04T04:49:36.486Z,3.40
2019-04-04T04:52:05.106Z,3.13
2019-04-04T04:54:33.725Z,3.60
2019-04-04T04:57:04.030Z,3.23
2019-04-04T04:59:32.658Z,2.80
2019-04-04T05:02:01.361Z,3.03
2019-04-04T05:04:30.169Z,3.23
2019-04-04T05:06:58.742Z,2.93
2019-04-04T05:09:28.267Z,3.23
2019-04-04T05:11:57.001Z,3.33
2019-04-04T05:14:25.630Z,4.30
2019-04-04T05:16:54.249Z,3.50
2019-04-04T05:19:22.930Z,3.80
2019-04-04T05:21:51.558Z,3.83
2019-04-04T05:24:20.172Z,6.13
2019-04-04T05:26:48.836Z,4.60
2019-04-04T05:29:17.451Z,3.50
2019-04-04T05:31:46.089Z,4.30
2019-04-04T05:34:14.777Z,4.27
2019-04-04T05:36:43.397Z,4.20
2019-04-04T05:39:12.020Z,4.00
2019-04-04T05:41:40.685Z,5.20
2019-04-04T05:44:10.205Z,4.53
2019-04-04T05:46:39.009Z,4.33
2019-04-04T05:49:08.398Z,4.00
2019-04-04T05:51:37.172Z,4.40
2019-04-04T05:54:07.705Z,4.40
2019-04-04T05:56:36.225Z,4.77
2019-04-04T05:59:04.862Z,4.13
2019-04-04T06:01:35.319Z,4.00
2019-04-04T06:04:04.288Z,4.10
2019-04-04T06:06:34.027Z,4.40
2019-04-04T06:09:04.538Z,4.93
2019-04-04T06:11:33.210Z,4.03
2019-04-04T06:14:01.837Z,4.70
2019-04-04T06:16:33.053Z,4.47
2019-04-04T06:19:01.708Z,4.30
2019-04-04T06:21:30.402Z,4.13
2019-04-04T06:23:59.058Z,3.83
2019-04-04T06:26:27.776Z,6.93
2019-04-04T06:28:56.401Z,4.30
2019-04-04T06:31:26.902Z,4.63
2019-04-04T06:33:55.405Z,4.53
2019-04-04T06:36:24.023Z,4.87
2019-04-04T06:38:54.091Z,4.40
2019-04-04T06:41:23.103Z,4.27
2019-04-04T06:43:51.743Z,5.50
2019-04-04T06:46:22.772Z,4.77
2019-04-04T06:48:50.751Z,4.50
2019-04-04T06:51:19.384Z,4.57
2019-04-04T06:53:48.099Z,5.70
2019-04-04T06:56:16.816Z,4.60
2019-04-04T06:58:45.442Z,4.67
2019-04-04T07:01:14.115Z,4.53
2019-04-04T07:03:42.727Z,4.70
2019-04-04T07:06:11.359Z,5.03
2019-04-04T07:08:40.021Z,4.73
2019-04-04T07:11:20.906Z,4.67
2019-04-04T07:13:42.676Z,4.80
2019-04-04T07:16:09.386Z,3.93
2019-04-04T07:18:38.030Z,4.03
2019-04-04T07:21:06.656Z,4.37
2019-04-04T07:23:35.343Z,5.30
2019-04-04T07:26:04.796Z,4.77
2019-04-04T07:28:33.417Z,5.27
2019-04-04T07:31:02.551Z,4.50
2019-04-04T07:33:31.180Z,4.33
2019-04-04T07:35:59.815Z,4.83
2019-04-04T07:38:28.797Z,4.43
2019-04-04T07:40:57.983Z,4.73
2019-04-04T07:43:26.597Z,5.17
2019-04-04T07:45:59.683Z,4.47
2019-04-04T07:48:28.385Z,5.10
2019-04-04T07:50:58.275Z,4.70
2019-04-04T07:53:28.218Z,4.53
2019-04-04T07:55:56.781Z,5.10
2019-04-04T07:58:25.409Z,5.10
2019-04-04T08:00:54.091Z,4.80
2019-04-04T08:03:22.711Z,4.53
2019-04-04T08:05:51.359Z,4.80
2019-04-04T08:08:20.069Z,4.93
2019-04-04T08:10:48.685Z,5.03
2019-04-04T08:13:17.335Z,5.47
2019-04-04T08:15:45.989Z,5.87
2019-04-04T08:18:14.637Z,4.93
2019-04-04T08:20:43.198Z,5.67
2019-04-04T08:23:11.968Z,5.50
2019-04-04T08:25:40.644Z,4.60
2019-04-04T08:28:09.201Z,5.80
2019-04-04T08:30:37.874Z,5.87
2019-04-04T08:33:06.501Z,5.57
2019-04-04T08:35:35.128Z,5.50
2019-04-04T08:38:03.893Z,5.30
2019-04-04T08:40:32.493Z,6.07
2019-04-04T08:43:01.051Z,4.90
2019-04-04T08:45:29.794Z,6.10
2019-04-04T08:47:58.467Z,4.87
2019-04-04T08:50:27.094Z,5.93
2019-04-04T08:52:55.787Z,5.73
2019-04-04T08:55:24.389Z,5.10
2019-04-04T08:57:53.016Z,5.20
2019-04-04T09:00:21.682Z,5.57
2019-04-04T09:02:50.336Z,5.73
2019-04-04T09:05:19.050Z,6.07
2019-04-04T09:07:47.708Z,6.03
2019-04-04T09:10:16.436Z,5.40
2019-04-04T09:12:45.059Z,7.73
2019-04-04T09:15:14.128Z,5.53
2019-04-04T09:17:42.823Z,6.23
2019-04-04T09:20:11.454Z,5.70
2019-04-04T09:22:41.118Z,6.57
2019-04-04T09:25:10.673Z,6.47
2019-04-04T09:27:39.850Z,6.37
2019-04-04T09:30:09.812Z,6.23
2019-04-04T09:32:38.446Z,6.60
2019-04-04T09:35:07.963Z,6.13
2019-04-04T09:37:36.632Z,5.77
2019-04-04T09:40:08.271Z,6.07
2019-04-04T09:42:36.864Z,5.73
2019-04-04T09:45:09.919Z,5.63
2019-04-04T09:47:38.536Z,6.10
2019-04-04T09:50:09.138Z,6.00
2019-04-04T09:52:37.791Z,5.87
2019-04-04T09:55:08.970Z,6.30
2019-04-04T09:57:37.592Z,6.57
2019-04-04T10:00:09.245Z,6.17
2019-04-04T10:02:37.938Z,7.47
2019-04-04T10:05:07.175Z,6.10
2019-04-04T10:07:35.911Z,6.33
2019-04-04T10:10:09.524Z,5.33
2019-04-04T10:12:38.246Z,5.97
2019-04-04T10:15:07.414Z,6.63
2019-04-04T10:17:36.047Z,6.63
2019-04-04T10:20:06.384Z,6.20
2019-04-04T10:22:35.039Z,5.13
2019-04-04T10:25:04.171Z,6.77
2019-04-04T10:27:32.804Z,5.27
2019-04-04T10:30:01.574Z,5.97
2019-04-04T10:32:30.200Z,6.73
2019-04-04T10:34:58.840Z,6.13
2019-04-04T10:37:27.489Z,6.37
2019-04-04T10:39:56.122Z,5.80
2019-04-04T10:42:24.735Z,6.77
2019-04-04T10:44:53.401Z,6.43
2019-04-04T10:47:22.020Z,5.93
2019-04-04T10:49:50.569Z,6.10
2019-04-04T10:52:19.216Z,6.40
2019-04-04T10:54:47.777Z,5.70
2019-04-04T10:57:16.398Z,5.30
2019-04-04T10:59:45.064Z,6.13
2019-04-04T11:02:13.680Z,5.37
2019-04-04T11:04:42.306Z,5.50
2019-04-04T11:07:11.034Z,5.40
2019-04-04T11:09:42.180Z,6.43
2019-04-04T11:12:10.279Z,6.63
2019-04-04T11:14:38.925Z,5.47
2019-04-04T11:17:07.558Z,5.10
2019-04-04T11:19:36.180Z,6.07
2019-04-04T11:22:04.958Z,6.27
2019-04-04T11:24:33.577Z,5.30
2019-04-04T11:27:02.212Z,5.30
2019-04-04T11:29:30.798Z,5.77
2019-04-04T11:31:59.429Z,5.80
2019-04-04T11:34:28.053Z,5.50
2019-04-04T11:36:56.636Z,5.80
2019-04-04T11:39:25.265Z,6.20
2019-04-04T11:41:53.820Z,6.33
2019-04-04T11:44:22.499Z,5.80
2019-04-04T11:46:51.146Z,5.97
2019-04-04T11:49:19.764Z,6.30
2019-04-04T11:51:48.426Z,6.90
2019-04-04T11:54:17.055Z,5.80
2019-04-04T11:56:45.673Z,6.17
2019-04-04T11:59:14.270Z,5.80
2019-04-04T12:01:44.534Z,6.17
2019-04-04T12:04:13.150Z,5.63
2019-04-04T12:06:41.809Z,6.20
2019-04-04T12:09:10.440Z,6.10
2019-04-04T12:11:39.063Z,5.53
2019-04-04T12:14:07.714Z,5.60
2019-04-04T12:16:36.260Z,4.87
2019-04-04T12:19:04.883Z,6.00
2019-04-04T12:21:33.479Z,6.70
2019-04-04T12:24:01.955Z,6.17
2019-04-04T12:26:30.601Z,6.27
2019-04-04T12:28:59.239Z,4.97
2019-04-04T12:31:27.868Z,5.20
2019-04-04T12:33:56.498Z,5.90
2019-04-04T12:36:25.212Z,4.93
2019-04-04T12:38:53.791Z,5.87
2019-04-04T12:41:22.410Z,5.43
2019-04-04T12:43:51.095Z,5.33
2019-04-04T12:46:19.662Z,5.60
2019-04-04T12:48:48.289Z,6.80
2019-04-04T12:51:16.941Z,6.50
2019-04-04T12:53:45.487Z,5.30
2019-04-04T12:56:14.103Z,5.80
2019-04-04T12:58:42.762Z,7.50
2019-04-04T13:01:11.372Z,7.63
2019-04-04T13:03:39.931Z,7.20
2019-04-04T13:06:08.603Z,7.57
2019-04-04T13:08:37.219Z,5.93
2019-04-04T13:11:05.849Z,7.50
2019-04-04T13:13:34.522Z,10.23
2019-04-04T13:16:03.143Z,12.00
2019-04-04T13:18:31.769Z,9.93
2019-04-04T13:21:00.433Z,12.77
2019-04-04T13:23:28.989Z,10.30
2019-04-04T13:25:57.611Z,10.97
2019-04-04T13:28:26.291Z,8.43
2019-04-04T13:30:54.946Z,8.63
2019-04-04T13:33:23.531Z,8.27
2019-04-04T13:35:52.190Z,8.23
2019-04-04T13:38:20.813Z,8.77
2019-04-04T13:40:49.431Z,9.07
2019-04-04T13:43:18.107Z,9.43
2019-04-04T13:45:46.856Z,8.93
2019-04-04T13:48:15.481Z,9.33
2019-04-04T13:50:44.134Z,8.53
2019-04-04T13:53:12.694Z,9.20
2019-04-04T13:55:41.320Z,9.63
2019-04-04T13:58:09.986Z,9.27
2019-04-04T14:00:38.680Z,7.60
2019-04-04T14:03:07.377Z,9.23
2019-04-04T14:05:36.045Z,8.57
2019-04-04T14:08:04.743Z,7.50
2019-04-04T14:10:33.377Z,21.13
2019-04-04T14:13:02.048Z,25.23
2019-04-04T14:15:30.674Z,16.90
2019-04-04T14:17:59.309Z,15.00
2019-04-04T14:20:27.953Z,9.97
2019-04-04T14:22:56.575Z,6.70
2019-04-04T14:25:25.205Z,7.10
2019-04-04T14:27:53.857Z,6.83
2019-04-04T14:30:22.591Z,7.10
2019-04-04T14:32:51.213Z,6.43
2019-04-04T14:35:19.886Z,6.30
2019-04-04T14:37:48.524Z,6.93
2019-04-04T14:40:17.129Z,6.90
2019-04-04T14:42:45.885Z,6.47
2019-04-04T14:45:14.509Z,6.07
2019-04-04T14:47:43.133Z,5.60
2019-04-04T14:50:11.786Z,5.43
2019-04-04T14:52:40.402Z,5.77
2019-04-04T14:55:09.021Z,5.60
2019-04-04T14:57:37.679Z,5.80
2019-04-04T15:00:09.957Z,5.40
2019-04-04T15:02:38.582Z,7.27
2019-04-04T15:05:07.251Z,6.67
2019-04-04T15:07:35.867Z,5.90
2019-04-04T15:10:05.090Z,5.47
2019-04-04T15:12:33.747Z,5.67
2019-04-04T15:15:02.428Z,5.13
2019-04-04T15:17:31.072Z,5.00
2019-04-04T15:19:59.727Z,4.90
2019-04-04T15:22:28.342Z,5.30
2019-04-04T15:24:56.966Z,5.60
2019-04-04T15:27:25.624Z,5.30
2019-04-04T15:29:54.242Z,5.23
2019-04-04T15:32:22.875Z,5.17
2019-04-04T15:34:51.531Z,5.13
2019-04-04T15:37:20.214Z,4.90
2019-04-04T15:39:48.835Z,5.10
2019-04-04T15:42:17.556Z,5.17
2019-04-04T15:44:46.168Z,5.63
2019-04-04T15:47:14.796Z,5.87
2019-04-04T15:49:43.383Z,5.43
2019-04-04T15:52:12.001Z,6.83
2019-04-04T15:54:40.626Z,6.23
2019-04-04T15:57:09.285Z,6.57
2019-04-04T15:59:37.912Z,6.80
2019-04-04T16:02:06.614Z,8.10
2019-04-04T16:04:35.281Z,6.87
2019-04-04T16:07:05.480Z,6.73
2019-04-04T16:09:34.037Z,7.07
2019-04-04T16:12:02.695Z,6.90
2019-04-04T16:14:31.320Z,7.67
2019-04-04T16:16:59.873Z,5.73
2019-04-04T16:19:28.536Z,6.60
2019-04-04T16:21:57.173Z,6.70
2019-04-04T16:24:25.793Z,7.50
2019-04-04T16:26:54.461Z,7.13
2019-04-04T16:29:23.091Z,8.57
2019-04-04T16:31:51.719Z,9.03
2019-04-04T16:34:20.383Z,10.20
2019-04-04T16:36:49.025Z,10.00
2019-04-04T16:39:17.672Z,10.67
2019-04-04T16:41:46.406Z,27.13
2019-04-04T16:44:15.131Z,22.80
2019-04-04T16:46:43.749Z,16.63
2019-04-04T16:49:12.433Z,9.93
2019-04-04T16:51:41.075Z,14.33
2019-04-04T16:54:09.709Z,10.93
2019-04-04T16:56:38.378Z,8.70
2019-04-04T16:59:07.007Z,7.63
2019-04-04T17:01:35.638Z,8.20
2019-04-04T17:04:04.401Z,7.23
2019-04-04T17:06:33.026Z,6.77
2019-04-04T17:09:01.659Z,6.77
2019-04-04T17:11:30.320Z,6.80
2019-04-04T17:13:58.952Z,7.47
2019-04-04T17:16:27.589Z,8.60
2019-04-04T17:18:56.262Z,8.70
2019-04-04T17:21:24.887Z,10.70
2019-04-04T17:23:53.516Z,7.30
2019-04-04T17:26:22.179Z,7.57
2019-04-04T17:28:51.382Z,21.97
2019-04-04T17:31:20.223Z,18.03
2019-04-04T17:33:49.399Z,20.67
2019-04-04T17:36:20.542Z,12.00
2019-04-04T17:38:48.441Z,8.17
2019-04-04T17:41:17.477Z,6.63
2019-04-04T17:43:46.204Z,7.87
2019-04-04T17:46:14.839Z,8.20
2019-04-04T17:48:43.780Z,6.97
2019-04-04T17:51:12.470Z,7.20
2019-04-04T17:53:41.112Z,7.43
2019-04-04T17:56:11.092Z,7.50
2019-04-04T17:58:39.703Z,10.10
2019-04-04T18:01:09.978Z,9.30
2019-04-04T18:03:38.644Z,7.30
2019-04-04T18:06:07.270Z,7.33
2019-04-04T18:08:35.906Z,13.33
2019-04-04T18:11:04.833Z,8.43
2019-04-04T18:13:33.456Z,9.07
2019-04-04T18:16:02.080Z,9.03
2019-04-04T18:18:30.750Z,7.23
2019-04-04T18:20:59.378Z,7.20
2019-04-04T18:23:28.015Z,7.23
2019-04-04T18:25:56.691Z,7.00
2019-04-04T18:28:25.265Z,7.13
2019-04-04T18:30:53.903Z,7.37
2019-04-04T18:33:22.917Z,7.13
2019-04-04T18:35:52.050Z,6.27
2019-04-04T18:38:20.710Z,7.97
2019-04-04T18:40:49.488Z,6.43
2019-04-04T18:43:18.315Z,9.13
2019-04-04T18:45:46.948Z,7.53
2019-04-04T18:48:15.627Z,6.57
2019-04-04T18:50:44.255Z,6.33
2019-04-04T18:53:12.887Z,6.53
2019-04-04T18:55:41.569Z,6.80
2019-04-04T18:58:10.210Z,7.30
2019-04-04T19:00:38.838Z,9.93
2019-04-04T19:03:07.505Z,9.63
2019-04-04T19:05:36.146Z,10.50
2019-04-04T19:08:04.778Z,9.60
2019-04-04T19:10:33.466Z,9.27
2019-04-04T19:13:05.645Z,14.37
2019-04-04T19:15:32.444Z,12.70
2019-04-04T19:18:01.046Z,9.33
2019-04-04T19:20:29.661Z,9.53
2019-04-04T19:22:58.293Z,9.77
2019-04-04T19:25:26.947Z,9.03
2019-04-04T19:27:55.562Z,9.90
2019-04-04T19:30:24.208Z,8.30
2019-04-04T19:32:52.880Z,8.50
2019-04-04T19:35:21.505Z,9.20
2019-04-04T19:37:59.945Z,7.87
2019-04-04T19:40:21.342Z,8.47
2019-04-04T19:42:49.967Z,7.90
2019-04-04T19:45:21.312Z,20.33
2019-04-04T19:47:50.135Z,12.43
2019-04-04T19:50:18.765Z,9.23
2019-04-04T19:52:47.397Z,8.40
2019-04-04T19:55:16.073Z,8.53
2019-04-04T19:57:44.707Z,7.87
2019-04-04T20:00:13.824Z,7.63
2019-04-04T20:02:43.901Z,8.07
2019-04-04T20:05:12.840Z,7.73
2019-04-04T20:07:41.539Z,7.60
2019-04-04T20:10:10.397Z,8.23
2019-04-04T20:12:39.013Z,7.87
2019-04-04T20:15:08.134Z,7.20
2019-04-04T20:17:36.803Z,7.87
2019-04-04T20:20:09.062Z,9.43
2019-04-04T20:22:37.671Z,8.50
2019-04-04T20:25:07.144Z,19.47
2019-04-04T20:27:35.704Z,13.37
2019-04-04T20:30:07.305Z,11.00
2019-04-04T20:32:35.975Z,8.40
2019-04-04T20:35:06.506Z,8.90
2019-04-04T20:37:35.134Z,9.23
2019-04-04T20:40:05.834Z,8.73
2019-04-04T20:42:34.386Z,8.70
2019-04-04T20:45:03.006Z,8.20
2019-04-04T20:47:33.781Z,9.33
2019-04-04T20:50:03.541Z,8.23
2019-04-04T20:52:32.076Z,8.63
2019-04-04T20:55:00.676Z,8.37
2019-04-04T20:57:29.227Z,8.10
2019-04-04T20:59:57.779Z,7.43
2019-04-04T21:02:26.425Z,8.43
2019-04-04T21:04:55.050Z,8.90
2019-04-04T21:07:23.676Z,9.30
2019-04-04T21:09:52.277Z,8.87
2019-04-04T21:12:20.821Z,9.23
2019-04-04T21:14:49.584Z,7.87
2019-04-04T21:17:18.099Z,7.93
2019-04-04T21:19:46.729Z,7.03
2019-04-04T21:22:27.014Z,6.60
2019-04-04T21:24:45.594Z,6.40
2019-04-04T21:27:14.229Z,6.93
2019-04-04T21:29:42.861Z,7.20
2019-04-04T21:32:11.514Z,8.50
2019-04-04T21:34:40.082Z,6.80
2019-04-04T21:37:08.702Z,7.77
2019-04-04T21:39:37.378Z,7.60
2019-04-04T21:42:06.838Z,7.17
2019-04-04T21:44:35.470Z,5.53
2019-04-04T21:47:04.128Z,7.63
2019-04-04T21:49:32.756Z,7.30
2019-04-04T21:52:01.391Z,6.93
2019-04-04T21:54:30.042Z,7.70
2019-04-04T21:56:58.669Z,7.60
2019-04-04T21:59:27.250Z,7.10
2019-04-04T22:01:55.969Z,7.80
2019-04-04T22:04:24.738Z,6.23
2019-04-04T22:06:53.433Z,7.00
2019-04-04T22:09:22.171Z,6.37
2019-04-04T22:11:50.798Z,7.13
2019-04-04T22:14:21.983Z,7.03
2019-04-04T22:16:49.722Z,7.77
2019-04-04T22:19:18.332Z,7.23
2019-04-04T22:21:46.957Z,6.20
2019-04-04T22:24:15.619Z,6.87
2019-04-04T22:26:44.242Z,6.00
2019-04-04T22:29:12.716Z,6.53
2019-04-04T22:31:41.366Z,6.30
2019-04-04T22:34:09.916Z,6.43
2019-04-04T22:36:38.543Z,7.93
2019-04-04T22:39:08.294Z,6.30
2019-04-04T22:41:36.863Z,6.03
2019-04-04T22:44:06.348Z,6.13
2019-04-04T22:46:35.001Z,5.40
2019-04-04T22:49:03.619Z,5.57
2019-04-04T22:51:32.245Z,6.50
2019-04-04T22:54:00.827Z,6.00
2019-04-04T22:56:29.447Z,6.47
2019-04-04T22:58:58.172Z,5.50
2019-04-04T23:01:29.186Z,5.93
2019-04-04T23:03:57.172Z,6.00
2019-04-04T23:06:25.780Z,6.60
2019-04-04T23:08:54.478Z,5.20
2019-04-04T23:11:23.095Z,6.90
2019-04-04T23:13:51.720Z,6.77
2019-04-04T23:16:20.393Z,7.47
2019-04-04T23:18:49.086Z,7.03
2019-04-04T23:21:17.716Z,5.90
2019-04-04T23:23:46.445Z,7.07
2019-04-04T23:26:15.080Z,6.90
2019-04-04T23:28:43.706Z,6.97
2019-04-04T23:31:12.366Z,6.20
2019-04-04T23:33:40.990Z,6.17
2019-04-04T23:36:09.609Z,6.27
2019-04-04T23:38:38.276Z,6.27
2019-04-04T23:41:06.903Z,7.07
2019-04-04T23:43:35.463Z,6.20
2019-04-04T23:46:04.120Z,5.83
2019-04-04T23:48:32.747Z,5.63
2019-04-04T23:51:01.413Z,5.97
2019-04-04T23:53:30.041Z,4.60
2019-04-04T23:55:58.664Z,5.50
2019-04-04T23:58:27.295Z,5.63
